首页
METAR-TAF:

METAR-TAF

机场 :

通孔廷国际机场

德古斯加巴, 洪都拉斯

纬度: 14-03N, 经度: 087-13W, 海拔: 994米

当前天气观测

该预报发布于8分钟前的10:00 UTC
静风
温度 18°C
湿度 100%
气压 1021 hPa
能见度10公里或以上
散云层高于2800英尺
多云层高于8000英尺

METAR: MHTG 151000Z 00000KT 9999 SCT028 BKN080 18/18 Q1021 A3015 NOSIG

时间: 04:08 (10:08 UTC)

预报

该预报发布于5小时和43分钟前的04:25 UTC
预报有效从15日的 06点(UTC)到 16日的 06点(UTC)
风速节,风向
能見度: 8000
散云层高于2500英尺
多云层高于8000英尺
附近有阵雨
成为
从 15日的 15点(UTC)到 15日的 17点(UTC)
风速8节,风向
能见度10公里或以上
散云层高于3000英尺
短暂存在
从 15日的 21点(UTC)到 16日的 03点(UTC)
能見度: 6000
少量云层高于2600英尺, 积雨云.
散云层高于3000英尺, 塔状积云.
散云层高于8000英尺
成为
从 16日的 03点(UTC)到 16日的 05点(UTC)
能见度10公里或以上
少量云层高于1200英尺
多云层高于2600英尺

TAF: MHTG 150425Z 1506/1606 00000KT 8000 VCSH SCT025 BKN080 TX26/1521Z TN17/1512Z BECMG 1515/1517 36008KT 9999 NSW SCT030 TEMPO 1521/1603 6000 RA FEW026CB SCT030TCU SCT080 BECMG 1603/1605 9999 NSW FEW012 BKN026

超过4000个机场的气象观测和天气预报(METAR&TAF报告)。

可查询的气象台以黄色和红色小点在地图上表示。

将鼠标移到小点上方,可查看气象台名称。

然后点击查看天气观测和预报。

如需切换地图:点击带黑十字的绿色按钮放大地图;点击带横线的绿色按钮缩小地图;或者点击绿色箭头查看邻近地区的地图。


METAR-TAF: